Time;durP1;ratioP1;P1;durP2;ratioP2;P2;SDS_P1;SDS_P2;PMS_P1;PMS_P2;Temp;Humidity;BMP_temperature;BMP_pressure;BME280_temperature;BME280_humidity;BME280_pressure;Samples;Min_cycle;Max_cycle;Signal;HPM_P1;HPM_P2
2023/07/29 00:00:34;;;;;;;0.88;0.88;;;;;;;;;;10217372;28;20242;-73
2023/07/29 00:05:35;;;;;;;0.93;0.93;;;;;;;;;;10230903;28;20233;-72
2023/07/29 00:10:37;;;;;;;1.00;1.00;;;;;;;;;;10223907;28;20222;-73
2023/07/29 00:15:38;;;;;;;0.90;0.90;;;;;;;;;;10231329;28;20237;-74
2023/07/29 00:20:39;;;;;;;1.02;1.02;;;;;;;;;;10211928;28;20311;-74
2023/07/29 00:25:40;;;;;;;1.25;1.10;;;;;;;;;;10226997;28;21464;-74
2023/07/29 00:30:41;;;;;;;0.77;0.77;;;;;;;;;;10232436;28;20621;-73
2023/07/29 00:35:43;;;;;;;0.65;0.65;;;;;;;;;;10225620;28;20261;-73
2023/07/29 00:40:44;;;;;;;1.00;1.00;;;;;;;;;;10226232;28;20297;-73
2023/07/29 00:45:45;;;;;;;0.93;0.93;;;;;;;;;;10229845;28;22381;-74
2023/07/29 00:50:48;;;;;;;0.95;0.95;;;;;;;;;;10224949;28;21086;-73
2023/07/29 00:55:49;;;;;;;0.85;0.80;;;;;;;;;;10226913;28;20227;-73
2023/07/29 01:00:51;;;;;;;0.90;0.90;;;;;;;;;;10224914;28;20238;-73
2023/07/29 01:06:18;;;;;;;0.75;0.75;;;;;;;;;;10209427;28;20230;-73
2023/07/29 01:11:28;;;;;;;0.70;0.70;;;;;;;;;;10214657;28;20238;-73
2023/07/29 01:16:33;;;;;;;1.98;1.10;;;;;;;;;;10238153;28;20223;-73
2023/07/29 01:21:36;;;;;;;0.77;0.77;;;;;;;;;;10228549;28;20233;-73
2023/07/29 01:26:37;;;;;;;1.10;1.05;;;;;;;;;;10231953;28;20361;-75
2023/07/29 01:31:43;;;;;;;1.38;0.80;;;;;;;;;;10226597;28;20223;-74
2023/07/29 01:36:45;;;;;;;1.60;1.50;;;;;;;;;;10229280;28;21842;-73
2023/07/29 01:41:47;;;;;;;1.20;1.20;;;;;;;;;;10226184;28;20214;-73
2023/07/29 01:46:50;;;;;;;4.32;1.23;;;;;;;;;;10227672;28;21661;-73
2023/07/29 01:51:51;;;;;;;1.60;1.50;;;;;;;;;;10220552;28;20219;-74
2023/07/29 01:56:52;;;;;;;1.50;1.40;;;;;;;;;;10229500;28;20223;-75
2023/07/29 02:01:53;;;;;;;1.15;1.15;;;;;;;;;;10218317;28;20215;-77
2023/07/29 02:06:54;;;;;;;1.58;1.38;;;;;;;;;;10224408;28;20223;-73
2023/07/29 02:11:56;;;;;;;0.93;0.93;;;;;;;;;;10218872;28;20238;-74
2023/07/29 02:16:57;;;;;;;0.98;0.98;;;;;;;;;;10231761;28;20238;-74
2023/07/29 02:21:58;;;;;;;1.10;1.10;;;;;;;;;;10221657;28;20250;-73
2023/07/29 02:26:59;;;;;;;1.05;1.05;;;;;;;;;;10225838;28;20223;-73
2023/07/29 02:32:00;;;;;;;1.10;1.10;;;;;;;;;;10226188;28;20227;-75
2023/07/29 02:37:02;;;;;;;1.65;1.30;;;;;;;;;;10223856;28;20227;-73
2023/07/29 02:42:03;;;;;;;1.05;1.05;;;;;;;;;;10216267;28;20918;-74
2023/07/29 02:47:04;;;;;;;1.13;1.13;;;;;;;;;;10213800;28;20719;-73
2023/07/29 02:52:05;;;;;;;0.77;0.77;;;;;;;;;;10229455;28;20215;-72
2023/07/29 02:57:06;;;;;;;10.75;1.40;;;;;;;;;;10234518;28;20230;-75
2023/07/29 03:02:07;;;;;;;1.35;1.30;;;;;;;;;;10223841;28;20227;-73
2023/07/29 03:07:09;;;;;;;0.95;0.95;;;;;;;;;;10229866;28;20845;-73
2023/07/29 03:12:10;;;;;;;2.92;1.42;;;;;;;;;;10231997;28;20231;-72
2023/07/29 03:17:11;;;;;;;1.45;1.35;;;;;;;;;;10239677;28;20259;-73
2023/07/29 03:22:13;;;;;;;1.00;1.00;;;;;;;;;;10226227;28;21645;-72
2023/07/29 03:27:15;;;;;;;0.95;0.95;;;;;;;;;;10231048;28;20226;-72
2023/07/29 03:32:16;;;;;;;1.27;1.27;;;;;;;;;;10235410;28;21312;-73
2023/07/29 03:37:17;;;;;;;0.95;0.95;;;;;;;;;;10232246;28;20218;-74
2023/07/29 03:42:19;;;;;;;3.92;1.40;;;;;;;;;;10234772;28;20223;-74
2023/07/29 03:47:20;;;;;;;0.93;0.93;;;;;;;;;;10237185;28;20309;-73
2023/07/29 03:52:21;;;;;;;1.02;1.02;;;;;;;;;;10227226;28;20227;-72
2023/07/29 03:57:22;;;;;;;0.93;0.93;;;;;;;;;;10221099;28;20680;-73
2023/07/29 04:02:24;;;;;;;1.45;1.00;;;;;;;;;;10216264;28;20226;-72
2023/07/29 04:07:25;;;;;;;1.70;1.60;;;;;;;;;;10215039;28;20819;-74
2023/07/29 04:12:26;;;;;;;1.05;1.05;;;;;;;;;;10230356;28;20233;-72
2023/07/29 04:17:27;;;;;;;0.80;0.80;;;;;;;;;;10237004;28;20918;-74
2023/07/29 04:22:28;;;;;;;0.70;0.70;;;;;;;;;;10229746;28;20225;-75
2023/07/29 04:27:29;;;;;;;1.10;1.10;;;;;;;;;;10231125;28;20222;-73
2023/07/29 04:32:30;;;;;;;1.10;1.10;;;;;;;;;;10241059;28;20221;-74
2023/07/29 04:37:31;;;;;;;0.70;0.70;;;;;;;;;;10239439;28;20229;-73
2023/07/29 04:42:32;;;;;;;0.80;0.80;;;;;;;;;;10230341;28;20227;-73
2023/07/29 04:47:33;;;;;;;0.90;0.90;;;;;;;;;;10212159;28;20221;-74
2023/07/29 04:52:35;;;;;;;0.90;0.90;;;;;;;;;;10224487;28;21618;-74
2023/07/29 04:57:36;;;;;;;0.80;0.80;;;;;;;;;;10220176;28;22155;-74
2023/07/29 05:02:37;;;;;;;0.77;0.77;;;;;;;;;;10222244;28;20719;-73
2023/07/29 05:07:38;;;;;;;0.70;0.70;;;;;;;;;;10223799;28;20219;-74
2023/07/29 05:12:39;;;;;;;0.40;0.40;;;;;;;;;;10214771;28;20231;-72
2023/07/29 05:17:40;;;;;;;0.50;0.50;;;;;;;;;;10224537;28;20312;-75
2023/07/29 05:22:41;;;;;;;0.60;0.60;;;;;;;;;;10227296;28;20265;-73
2023/07/29 05:27:43;;;;;;;0.52;0.50;;;;;;;;;;10215784;28;20220;-74
2023/07/29 05:32:44;;;;;;;0.50;0.50;;;;;;;;;;10227017;28;22435;-73
2023/07/29 05:37:45;;;;;;;0.35;0.35;;;;;;;;;;10227166;28;20583;-73
2023/07/29 05:42:46;;;;;;;2.10;0.47;;;;;;;;;;10211662;28;20226;-73
2023/07/29 05:47:47;;;;;;;0.40;0.40;;;;;;;;;;10210330;28;20215;-73
2023/07/29 05:52:48;;;;;;;0.40;0.40;;;;;;;;;;10236010;28;20727;-78
2023/07/29 05:57:49;;;;;;;0.40;0.40;;;;;;;;;;10217317;28;20220;-74
2023/07/29 06:02:50;;;;;;;0.50;0.50;;;;;;;;;;10228319;28;20232;-74
2023/07/29 06:07:55;;;;;;;0.35;0.35;;;;;;;;;;10228254;28;20235;-73
2023/07/29 06:12:56;;;;;;;0.35;0.35;;;;;;;;;;10233593;28;20329;-74
2023/07/29 06:17:57;;;;;;;0.30;0.30;;;;;;;;;;10233042;28;20225;-72
2023/07/29 06:22:58;;;;;;;0.30;0.30;;;;;;;;;;10222404;28;20230;-73
2023/07/29 06:28:00;;;;;;;0.30;0.30;;;;;;;;;;10224967;28;20216;-73
2023/07/29 06:33:02;;;;;;;0.40;0.40;;;;;;;;;;10238494;28;22301;-73
2023/07/29 06:38:04;;;;;;;3.13;0.30;;;;;;;;;;10235753;28;20223;-75
2023/07/29 06:43:05;;;;;;;0.40;0.40;;;;;;;;;;10253009;28;20308;-75
2023/07/29 06:48:06;;;;;;;0.30;0.30;;;;;;;;;;10230208;28;20227;-75
2023/07/29 06:53:07;;;;;;;7.75;0.45;;;;;;;;;;10240910;28;20222;-75
2023/07/29 06:58:08;;;;;;;0.40;0.40;;;;;;;;;;10246111;28;21369;-74
2023/07/29 07:03:09;;;;;;;0.32;0.32;;;;;;;;;;10247435;28;20214;-75
2023/07/29 07:08:10;;;;;;;0.40;0.40;;;;;;;;;;10242301;28;20289;-74
2023/07/29 07:13:11;;;;;;;0.45;0.45;;;;;;;;;;10249282;28;20235;-75
2023/07/29 07:18:13;;;;;;;0.30;0.30;;;;;;;;;;10240453;28;22081;-73
2023/07/29 07:23:15;;;;;;;0.30;0.30;;;;;;;;;;10224461;28;21278;-74
2023/07/29 07:28:16;;;;;;;0.40;0.30;;;;;;;;;;10245978;28;21803;-75
2023/07/29 07:33:17;;;;;;;0.38;0.38;;;;;;;;;;10221458;28;20950;-73
2023/07/29 07:38:18;;;;;;;0.30;0.30;;;;;;;;;;10235436;28;22282;-74
2023/07/29 07:43:20;;;;;;;0.40;0.40;;;;;;;;;;10256370;28;20233;-74
2023/07/29 07:48:21;;;;;;;0.30;0.30;;;;;;;;;;10244522;28;22755;-73
2023/07/29 07:53:22;;;;;;;0.68;0.47;;;;;;;;;;10252181;28;20264;-74
2023/07/29 07:58:23;;;;;;;0.32;0.32;;;;;;;;;;10242769;28;20791;-74
2023/07/29 08:03:24;;;;;;;0.40;0.40;;;;;;;;;;10222896;28;21248;-74
2023/07/29 08:08:26;;;;;;;0.30;0.30;;;;;;;;;;10238246;28;20223;-74
2023/07/29 08:13:27;;;;;;;0.35;0.35;;;;;;;;;;10236750;28;20900;-74
2023/07/29 08:18:28;;;;;;;0.40;0.40;;;;;;;;;;10204012;28;21329;-75
2023/07/29 08:23:30;;;;;;;1.85;0.40;;;;;;;;;;10241937;28;20222;-73
2023/07/29 08:28:32;;;;;;;0.30;0.30;;;;;;;;;;10245559;28;23657;-74
2023/07/29 08:33:34;;;;;;;0.30;0.30;;;;;;;;;;10241210;28;20218;-73
2023/07/29 08:38:35;;;;;;;0.45;0.45;;;;;;;;;;10233317;28;22111;-74
2023/07/29 08:43:38;;;;;;;0.30;0.30;;;;;;;;;;10228725;28;20219;-74
2023/07/29 08:48:43;;;;;;;0.50;0.50;;;;;;;;;;10223110;28;20223;-73
2023/07/29 08:53:44;;;;;;;0.40;0.40;;;;;;;;;;10216857;28;20253;-72
2023/07/29 08:58:45;;;;;;;2.08;0.52;;;;;;;;;;10204155;28;20353;-76
2023/07/29 09:03:47;;;;;;;1.05;0.57;;;;;;;;;;10235720;28;20511;-72
2023/07/29 09:08:49;;;;;;;0.40;0.40;;;;;;;;;;10230811;28;20223;-74
2023/07/29 09:13:50;;;;;;;0.60;0.60;;;;;;;;;;10230339;28;21234;-74
2023/07/29 09:18:52;;;;;;;1.98;0.50;;;;;;;;;;10221983;28;20223;-73
2023/07/29 09:23:53;;;;;;;0.93;0.30;;;;;;;;;;10215941;28;20231;-75
2023/07/29 09:28:57;;;;;;;0.40;0.40;;;;;;;;;;10232346;28;20223;-74
2023/07/29 09:34:02;;;;;;;0.28;0.28;;;;;;;;;;10243516;28;20333;-74
2023/07/29 09:39:04;;;;;;;1.20;0.30;;;;;;;;;;10247399;28;20365;-74
2023/07/29 09:44:05;;;;;;;0.40;0.35;;;;;;;;;;10234833;28;20453;-72
2023/07/29 09:49:07;;;;;;;0.20;0.20;;;;;;;;;;10236478;28;20227;-73
2023/07/29 09:54:09;;;;;;;0.20;0.20;;;;;;;;;;10200110;28;20215;-73
2023/07/29 09:59:12;;;;;;;0.38;0.38;;;;;;;;;;10237499;28;20231;-72
2023/07/29 10:04:14;;;;;;;0.10;0.10;;;;;;;;;;10244308;28;20241;-73
2023/07/29 10:09:15;;;;;;;0.60;0.10;;;;;;;;;;10226966;28;20227;-73
2023/07/29 10:14:17;;;;;;;0.05;0.05;;;;;;;;;;10251362;28;21525;-74
2023/07/29 10:19:19;;;;;;;1.55;0.20;;;;;;;;;;10243216;28;20230;-73
2023/07/29 10:24:28;;;;;;;0.10;0.10;;;;;;;;;;10235527;28;20242;-73
2023/07/29 10:29:34;;;;;;;0.13;0.13;;;;;;;;;;10215434;28;20228;-73
2023/07/29 10:34:36;;;;;;;0.00;0.00;;;;;;;;;;10238619;28;20707;-73
2023/07/29 10:39:42;;;;;;;0.10;0.10;;;;;;;;;;10226174;28;20227;-73
2023/07/29 10:44:49;;;;;;;0.13;0.13;;;;;;;;;;10220437;28;20224;-74
2023/07/29 10:49:51;;;;;;;0.08;0.08;;;;;;;;;;10221133;28;20246;-74
2023/07/29 10:54:52;;;;;;;0.10;0.10;;;;;;;;;;10229030;28;20223;-73
2023/07/29 10:59:58;;;;;;;0.10;0.10;;;;;;;;;;10211229;28;20230;-73
2023/07/29 11:05:00;;;;;;;0.10;0.10;;;;;;;;;;10237837;28;20244;-75
2023/07/29 11:10:03;;;;;;;0.43;0.20;;;;;;;;;;10247900;28;22794;-74
2023/07/29 11:15:05;;;;;;;1.75;0.30;;;;;;;;;;10242652;28;20222;-75
2023/07/29 11:20:09;;;;;;;0.22;0.22;;;;;;;;;;10237591;28;20199;-74
2023/07/29 11:25:14;;;;;;;1.17;0.20;;;;;;;;;;10242061;28;20257;-73
2023/07/29 11:30:16;;;;;;;0.25;0.25;;;;;;;;;;10261467;28;21058;-74
2023/07/29 11:35:18;;;;;;;0.20;0.20;;;;;;;;;;10251783;28;20267;-74
2023/07/29 11:40:20;;;;;;;0.20;0.20;;;;;;;;;;10225038;28;20215;-75
2023/07/29 11:45:24;;;;;;;0.75;0.35;;;;;;;;;;10249290;28;20238;-76
2023/07/29 11:50:25;;;;;;;0.22;0.22;;;;;;;;;;10256637;28;20209;-75
2023/07/29 11:55:26;;;;;;;1.65;0.20;;;;;;;;;;10252038;28;22195;-76
2023/07/29 12:00:27;;;;;;;0.28;0.28;;;;;;;;;;10255787;28;20225;-75
2023/07/29 12:05:28;;;;;;;0.40;0.40;;;;;;;;;;10244251;28;22731;-75
2023/07/29 12:10:30;;;;;;;0.30;0.30;;;;;;;;;;10247159;28;20235;-74
2023/07/29 12:15:31;;;;;;;0.30;0.30;;;;;;;;;;10251749;28;21020;-74
2023/07/29 12:20:32;;;;;;;0.43;0.30;;;;;;;;;;10267454;28;20833;-75
2023/07/29 12:25:33;;;;;;;2.88;0.38;;;;;;;;;;10240962;28;20697;-77
2023/07/29 12:30:35;;;;;;;0.55;0.40;;;;;;;;;;10236825;28;20303;-74
2023/07/29 12:35:37;;;;;;;0.47;0.47;;;;;;;;;;10218494;28;20257;-76
2023/07/29 12:40:40;;;;;;;0.40;0.40;;;;;;;;;;10209801;28;20681;-77
2023/07/29 12:45:42;;;;;;;0.40;0.40;;;;;;;;;;10255896;28;20230;-75
2023/07/29 12:50:43;;;;;;;0.50;0.50;;;;;;;;;;10255689;28;20219;-76
2023/07/29 12:55:44;;;;;;;0.43;0.43;;;;;;;;;;10268682;28;21516;-75
2023/07/29 13:00:45;;;;;;;0.55;0.55;;;;;;;;;;10257279;28;20260;-75
2023/07/29 13:05:46;;;;;;;0.40;0.40;;;;;;;;;;10256765;28;20231;-77
2023/07/29 13:10:47;;;;;;;0.50;0.50;;;;;;;;;;10260171;28;20231;-75
2023/07/29 13:15:48;;;;;;;0.60;0.60;;;;;;;;;;10243875;28;20222;-76
2023/07/29 13:20:49;;;;;;;0.60;0.60;;;;;;;;;;10255341;28;20275;-76
2023/07/29 13:25:51;;;;;;;0.60;0.60;;;;;;;;;;10262530;28;20226;-75
2023/07/29 13:30:52;;;;;;;0.80;0.80;;;;;;;;;;10238587;28;20605;-75
2023/07/29 13:35:53;;;;;;;0.55;0.55;;;;;;;;;;10249141;28;20257;-74
2023/07/29 13:40:54;;;;;;;0.68;0.68;;;;;;;;;;10250943;28;20222;-74
2023/07/29 13:45:56;;;;;;;0.95;0.57;;;;;;;;;;10244005;28;20238;-73
2023/07/29 13:50:57;;;;;;;0.70;0.70;;;;;;;;;;10305280;28;21206;-73
2023/07/29 13:55:58;;;;;;;0.60;0.60;;;;;;;;;;10303992;28;20219;-73
2023/07/29 14:00:59;;;;;;;0.70;0.70;;;;;;;;;;10307241;28;20214;-74
2023/07/29 14:06:00;;;;;;;0.85;0.85;;;;;;;;;;10312674;28;20273;-75
2023/07/29 14:11:01;;;;;;;0.95;0.95;;;;;;;;;;10305071;28;20229;-73
2023/07/29 14:16:02;;;;;;;1.05;1.05;;;;;;;;;;10293570;28;20230;-75
2023/07/29 14:21:03;;;;;;;0.88;0.88;;;;;;;;;;10305227;28;20222;-74
2023/07/29 14:26:04;;;;;;;2.47;0.80;;;;;;;;;;10289119;28;20222;-74
2023/07/29 14:31:06;;;;;;;2.17;1.00;;;;;;;;;;10295591;28;20223;-75
2023/07/29 14:36:07;;;;;;;1.20;1.10;;;;;;;;;;10286655;28;20244;-72
2023/07/29 14:41:08;;;;;;;1.25;1.00;;;;;;;;;;10291836;28;21444;-74
2023/07/29 14:46:09;;;;;;;1.00;1.00;;;;;;;;;;10278795;28;20230;-72
2023/07/29 14:51:11;;;;;;;0.98;0.98;;;;;;;;;;10290281;28;20874;-77
2023/07/29 14:56:13;;;;;;;0.90;0.90;;;;;;;;;;10292369;28;20223;-75
2023/07/29 15:01:14;;;;;;;1.08;1.08;;;;;;;;;;10291999;28;20644;-72
2023/07/29 15:06:15;;;;;;;1.10;1.10;;;;;;;;;;10297521;28;24205;-73
2023/07/29 15:11:16;;;;;;;0.98;0.98;;;;;;;;;;10288634;28;20234;-75
2023/07/29 15:16:18;;;;;;;0.73;0.73;;;;;;;;;;10292756;28;20278;-74
2023/07/29 15:21:19;;;;;;;0.50;0.50;;;;;;;;;;10267194;28;23203;-75
2023/07/29 15:26:20;;;;;;;0.40;0.40;;;;;;;;;;10288691;28;20227;-73
2023/07/29 15:31:21;;;;;;;0.35;0.35;;;;;;;;;;10280850;28;20219;-72
2023/07/29 15:36:22;;;;;;;0.50;0.50;;;;;;;;;;10297243;28;20697;-77
2023/07/29 15:41:24;;;;;;;2.10;0.30;;;;;;;;;;10309537;28;20210;-71
2023/07/29 15:46:25;;;;;;;0.20;0.20;;;;;;;;;;10319391;28;20227;-72
2023/07/29 15:51:26;;;;;;;0.20;0.20;;;;;;;;;;10305422;28;20219;-73
2023/07/29 15:56:28;;;;;;;0.43;0.38;;;;;;;;;;10314577;28;20235;-73
2023/07/29 16:01:29;;;;;;;0.28;0.28;;;;;;;;;;10315347;28;20223;-76
2023/07/29 16:06:30;;;;;;;0.43;0.20;;;;;;;;;;10315650;28;22167;-72
2023/07/29 16:11:32;;;;;;;0.32;0.30;;;;;;;;;;10322039;28;21240;-76
2023/07/29 16:16:33;;;;;;;0.22;0.22;;;;;;;;;;10323370;28;21070;-75
2023/07/29 16:21:34;;;;;;;1.10;0.20;;;;;;;;;;10315358;28;20893;-76
2023/07/29 16:26:35;;;;;;;0.20;0.20;;;;;;;;;;10308238;28;20304;-74
2023/07/29 16:31:36;;;;;;;0.40;0.30;;;;;;;;;;10314385;28;20207;-73
2023/07/29 16:36:37;;;;;;;0.22;0.22;;;;;;;;;;10301912;28;21240;-73
2023/07/29 16:41:40;;;;;;;0.20;0.20;;;;;;;;;;10308432;28;20254;-74
2023/07/29 16:46:41;;;;;;;0.20;0.20;;;;;;;;;;10306252;28;20226;-74
2023/07/29 16:51:42;;;;;;;0.20;0.20;;;;;;;;;;10271209;28;20219;-75
2023/07/29 16:56:44;;;;;;;0.25;0.25;;;;;;;;;;10286328;28;20751;-73
2023/07/29 17:01:46;;;;;;;0.30;0.30;;;;;;;;;;10282348;28;20268;-75
2023/07/29 17:06:47;;;;;;;0.20;0.20;;;;;;;;;;10281259;28;20689;-75
2023/07/29 17:11:48;;;;;;;0.25;0.25;;;;;;;;;;10261391;28;20234;-74
2023/07/29 17:16:49;;;;;;;0.10;0.10;;;;;;;;;;10272368;28;23236;-74
2023/07/29 17:21:50;;;;;;;1.00;0.28;;;;;;;;;;10275444;28;20219;-75
2023/07/29 17:26:51;;;;;;;0.28;0.28;;;;;;;;;;10284108;28;20907;-74
2023/07/29 17:31:52;;;;;;;2.05;0.30;;;;;;;;;;10271033;28;20412;-74
2023/07/29 17:36:53;;;;;;;0.40;0.40;;;;;;;;;;10274375;28;20219;-73
2023/07/29 17:41:54;;;;;;;0.20;0.20;;;;;;;;;;10271273;28;20214;-73
2023/07/29 17:46:56;;;;;;;0.20;0.20;;;;;;;;;;10264228;28;23900;-74
2023/07/29 17:51:57;;;;;;;0.20;0.20;;;;;;;;;;10276286;28;20222;-73
2023/07/29 17:56:58;;;;;;;0.20;0.20;;;;;;;;;;10279306;28;20904;-73
2023/07/29 18:01:59;;;;;;;0.20;0.20;;;;;;;;;;10278032;28;20227;-75
2023/07/29 18:07:00;;;;;;;0.30;0.30;;;;;;;;;;10287773;28;20233;-74
2023/07/29 18:12:01;;;;;;;0.25;0.25;;;;;;;;;;10278772;28;20227;-73
2023/07/29 18:17:03;;;;;;;0.40;0.40;;;;;;;;;;10284033;28;20228;-75
2023/07/29 18:22:04;;;;;;;0.30;0.30;;;;;;;;;;10279180;28;20215;-73
2023/07/29 18:27:07;;;;;;;0.40;0.40;;;;;;;;;;10291162;28;20230;-77
2023/07/29 18:32:08;;;;;;;0.40;0.40;;;;;;;;;;10277169;28;20227;-75
2023/07/29 18:37:09;;;;;;;0.50;0.50;;;;;;;;;;10279758;28;20914;-75
2023/07/29 18:42:10;;;;;;;0.40;0.40;;;;;;;;;;10301040;28;20215;-77
2023/07/29 18:47:11;;;;;;;0.40;0.40;;;;;;;;;;10300987;28;21205;-77
2023/07/29 18:52:13;;;;;;;0.50;0.50;;;;;;;;;;10306245;28;20210;-75
2023/07/29 18:57:14;;;;;;;0.65;0.65;;;;;;;;;;10282072;28;20271;-73
2023/07/29 19:02:15;;;;;;;0.50;0.50;;;;;;;;;;10300295;28;20211;-76
2023/07/29 19:07:18;;;;;;;0.50;0.50;;;;;;;;;;10297700;28;21097;-77
2023/07/29 19:12:19;;;;;;;0.60;0.60;;;;;;;;;;10294775;28;20916;-74
2023/07/29 19:17:21;;;;;;;0.60;0.60;;;;;;;;;;10299806;28;21139;-76
2023/07/29 19:22:22;;;;;;;0.50;0.50;;;;;;;;;;10298073;28;20293;-75
2023/07/29 19:27:23;;;;;;;0.50;0.50;;;;;;;;;;10296689;28;20219;-75
2023/07/29 19:32:24;;;;;;;0.68;0.68;;;;;;;;;;10301552;28;20797;-75
2023/07/29 19:37:26;;;;;;;1.88;0.50;;;;;;;;;;10299530;28;24079;-74
2023/07/29 19:42:27;;;;;;;0.60;0.60;;;;;;;;;;10298813;28;20246;-72
2023/07/29 19:47:28;;;;;;;0.57;0.57;;;;;;;;;;10304369;28;20269;-75
2023/07/29 19:52:29;;;;;;;0.82;0.77;;;;;;;;;;10289117;28;20214;-75
2023/07/29 19:57:30;;;;;;;0.60;0.60;;;;;;;;;;10296485;28;20226;-76
2023/07/29 20:02:32;;;;;;;0.52;0.52;;;;;;;;;;10295798;28;20234;-75
2023/07/29 20:07:33;;;;;;;0.88;0.88;;;;;;;;;;10300462;28;20214;-74
2023/07/29 20:12:34;;;;;;;0.68;0.68;;;;;;;;;;10280890;28;20226;-73
2023/07/29 20:17:35;;;;;;;0.70;0.70;;;;;;;;;;10297439;28;20763;-75
2023/07/29 20:22:36;;;;;;;0.60;0.60;;;;;;;;;;10293717;28;20221;-75
2023/07/29 20:27:37;;;;;;;1.23;1.17;;;;;;;;;;10294548;28;20226;-75
2023/07/29 20:32:39;;;;;;;1.30;1.02;;;;;;;;;;10287586;28;20233;-74
2023/07/29 20:37:40;;;;;;;0.65;0.65;;;;;;;;;;10286268;28;21944;-74
2023/07/29 20:42:41;;;;;;;0.63;0.63;;;;;;;;;;10289091;28;21040;-74
2023/07/29 20:47:42;;;;;;;0.65;0.65;;;;;;;;;;10291187;28;21340;-76
2023/07/29 20:52:43;;;;;;;0.80;0.80;;;;;;;;;;10289683;28;20211;-75
2023/07/29 20:57:44;;;;;;;0.80;0.80;;;;;;;;;;10276401;28;20222;-74
2023/07/29 21:02:46;;;;;;;1.50;0.90;;;;;;;;;;10292226;28;20787;-73
2023/07/29 21:07:47;;;;;;;0.73;0.73;;;;;;;;;;10294191;28;21733;-75
2023/07/29 21:12:48;;;;;;;0.60;0.60;;;;;;;;;;10290798;28;20276;-75
2023/07/29 21:17:49;;;;;;;0.77;0.77;;;;;;;;;;10302946;28;20223;-73
2023/07/29 21:22:50;;;;;;;0.93;0.93;;;;;;;;;;10293859;28;20230;-74
2023/07/29 21:27:51;;;;;;;0.90;0.90;;;;;;;;;;10271223;28;20221;-73
2023/07/29 21:32:52;;;;;;;0.65;0.65;;;;;;;;;;10302441;28;21263;-73
2023/07/29 21:37:53;;;;;;;0.70;0.70;;;;;;;;;;10302134;28;20648;-72
2023/07/29 21:42:54;;;;;;;0.90;0.90;;;;;;;;;;10303970;28;20822;-73
2023/07/29 21:47:55;;;;;;;0.93;0.93;;;;;;;;;;10298146;28;21027;-73
2023/07/29 21:52:56;;;;;;;0.55;0.55;;;;;;;;;;10295332;28;20218;-73
2023/07/29 21:57:57;;;;;;;0.57;0.57;;;;;;;;;;10268405;28;20323;-75
2023/07/29 22:02:59;;;;;;;0.63;0.63;;;;;;;;;;10293257;28;20219;-70
2023/07/29 22:08:00;;;;;;;0.43;0.43;;;;;;;;;;10305663;28;20212;-74
2023/07/29 22:13:01;;;;;;;1.50;0.63;;;;;;;;;;10227490;28;20774;-71
2023/07/29 22:18:02;;;;;;;0.77;0.50;;;;;;;;;;10225395;28;20223;-72
2023/07/29 22:23:03;;;;;;;1.50;0.60;;;;;;;;;;10223765;28;21459;-73
2023/07/29 22:28:04;;;;;;;0.73;0.40;;;;;;;;;;10219807;28;20223;-73
2023/07/29 22:33:05;;;;;;;0.65;0.65;;;;;;;;;;10221017;28;20216;-73
2023/07/29 22:38:07;;;;;;;0.40;0.40;;;;;;;;;;10218664;28;21138;-73
2023/07/29 22:43:08;;;;;;;0.40;0.40;;;;;;;;;;10228349;28;20275;-72
2023/07/29 22:48:09;;;;;;;0.57;0.57;;;;;;;;;;10220480;28;20220;-72
2023/07/29 22:53:10;;;;;;;0.40;0.40;;;;;;;;;;10220997;28;20221;-73
2023/07/29 22:58:12;;;;;;;0.77;0.50;;;;;;;;;;10222527;28;20232;-74
2023/07/29 23:03:13;;;;;;;0.60;0.60;;;;;;;;;;10220752;28;20228;-72
2023/07/29 23:08:14;;;;;;;0.50;0.50;;;;;;;;;;10220393;28;20223;-72
2023/07/29 23:13:15;;;;;;;0.45;0.45;;;;;;;;;;10238403;28;20282;-72
2023/07/29 23:18:16;;;;;;;0.40;0.40;;;;;;;;;;10212656;28;20220;-73
2023/07/29 23:23:17;;;;;;;0.35;0.35;;;;;;;;;;10233429;28;20228;-73
2023/07/29 23:28:18;;;;;;;0.50;0.50;;;;;;;;;;10231905;28;20702;-73
2023/07/29 23:33:19;;;;;;;0.52;0.52;;;;;;;;;;10219945;28;20220;-73
2023/07/29 23:38:21;;;;;;;2.95;0.90;;;;;;;;;;10242811;28;20297;-73
2023/07/29 23:43:22;;;;;;;0.75;0.75;;;;;;;;;;10237628;28;20215;-73
2023/07/29 23:48:24;;;;;;;0.65;0.65;;;;;;;;;;10241372;28;21744;-74
2023/07/29 23:53:25;;;;;;;0.60;0.60;;;;;;;;;;10228996;28;20224;-72
2023/07/29 23:58:26;;;;;;;0.43;0.43;;;;;;;;;;10221158;28;20309;-73
